Time;durP1;ratioP1;P1;durP2;ratioP2;P2;SDS_P1;SDS_P2;PMS_P1;PMS_P2;Temp;Humidity;BMP_temperature;BMP_pressure;BME280_temperature;BME280_humidity;BME280_pressure;Samples;Min_cycle;Max_cycle;Signal;HPM_P1;HPM_P2
2024/03/29 00:00:36;;;;;;;3.53;0.80;;;9.80;99.90;;;;;;5014979;28;20537;-77
2024/03/29 00:03:02;;;;;;;4.28;0.90;;;9.80;99.90;;;;;;5014309;28;20101;-77
2024/03/29 00:05:28;;;;;;;5.47;0.88;;;9.80;99.90;;;;;;5014666;28;20022;-77
2024/03/29 00:07:53;;;;;;;4.55;1.15;;;9.80;99.90;;;;;;5014120;28;20026;-77
2024/03/29 00:10:19;;;;;;;4.22;1.08;;;9.70;99.90;;;;;;5014610;28;20018;-78
2024/03/29 00:12:45;;;;;;;2.40;0.75;;;9.70;99.90;;;;;;5012528;28;20018;-77
2024/03/29 00:15:10;;;;;;;3.20;1.27;;;9.70;99.90;;;;;;5014299;28;20578;-77
2024/03/29 00:17:36;;;;;;;5.00;1.08;;;9.70;99.90;;;;;;5014004;28;20041;-78
2024/03/29 00:20:03;;;;;;;5.60;1.10;;;9.60;99.90;;;;;;5014568;28;20025;-77
2024/03/29 00:22:30;;;;;;;4.75;0.95;;;9.70;99.90;;;;;;5014111;28;20117;-77
2024/03/29 00:24:55;;;;;;;1.60;0.55;;;9.70;99.90;;;;;;5017179;28;20106;-77
2024/03/29 00:27:25;;;;;;;4.10;1.40;;;9.70;99.90;;;;;;5012679;28;20026;-77
2024/03/29 00:29:53;;;;;;;4.30;0.90;;;9.70;99.90;;;;;;5013106;28;20026;-78
2024/03/29 00:32:19;;;;;;;5.88;1.05;;;9.60;99.90;;;;;;5012734;28;20049;-78
2024/03/29 00:34:45;;;;;;;2.30;0.60;;;9.60;99.90;;;;;;5014952;28;20105;-77
2024/03/29 00:37:11;;;;;;;3.40;1.30;;;9.60;99.90;;;;;;5013964;28;20025;-77
2024/03/29 00:39:37;;;;;;;3.30;0.63;;;9.60;99.90;;;;;;5014196;28;20079;-77
2024/03/29 00:42:06;;;;;;;5.40;1.15;;;9.60;99.90;;;;;;5015902;28;20022;-77
2024/03/29 00:44:32;;;;;;;2.88;0.90;;;9.60;99.90;;;;;;5022909;28;20022;-77
2024/03/29 00:46:58;;;;;;;3.92;1.02;;;9.60;99.90;;;;;;5024311;28;20037;-77
2024/03/29 00:49:23;;;;;;;4.47;0.70;;;9.70;99.90;;;;;;5029463;28;20034;-76
2024/03/29 00:51:49;;;;;;;4.13;0.68;;;9.70;99.90;;;;;;5030594;28;20081;-76
2024/03/29 00:54:14;;;;;;;4.85;1.00;;;9.70;99.90;;;;;;5030403;28;20061;-77
2024/03/29 00:56:40;;;;;;;4.40;0.70;;;9.70;99.90;;;;;;5031094;28;20064;-77
2024/03/29 00:59:06;;;;;;;3.05;0.77;;;9.80;99.90;;;;;;5030769;28;20018;-77
2024/03/29 01:01:32;;;;;;;4.68;0.90;;;9.70;99.90;;;;;;5025046;28;20062;-76
2024/03/29 01:03:58;;;;;;;3.55;0.82;;;9.80;99.90;;;;;;5029192;28;20052;-76
2024/03/29 01:06:23;;;;;;;3.47;0.80;;;9.80;99.90;;;;;;5028259;28;20396;-77
2024/03/29 01:08:49;;;;;;;6.05;0.95;;;9.70;99.90;;;;;;5033649;28;20030;-77
2024/03/29 01:11:15;;;;;;;1.58;0.47;;;9.80;99.90;;;;;;5033342;28;20030;-77
2024/03/29 01:13:41;;;;;;;3.63;0.80;;;9.80;99.90;;;;;;5034540;28;20094;-77
2024/03/29 01:16:06;;;;;;;3.60;0.70;;;9.70;99.90;;;;;;5014493;28;20034;-77
2024/03/29 01:18:35;;;;;;;3.85;0.65;;;9.70;99.90;;;;;;5012824;28;20070;-77
2024/03/29 01:21:01;;;;;;;3.47;1.10;;;9.70;99.90;;;;;;5013346;28;20109;-77
2024/03/29 01:23:26;;;;;;;8.55;1.85;;;9.70;99.90;;;;;;5012632;28;20503;-78
2024/03/29 01:25:52;;;;;;;6.60;1.17;;;9.70;99.90;;;;;;5013112;28;20022;-77
2024/03/29 01:28:18;;;;;;;2.25;0.75;;;9.70;99.90;;;;;;5011264;28;20399;-77
2024/03/29 01:30:50;;;;;;;7.25;0.80;;;9.70;99.90;;;;;;5013224;28;20104;-76
2024/03/29 01:33:16;;;;;;;3.05;0.65;;;9.70;99.90;;;;;;5012379;28;20022;-77
2024/03/29 01:35:42;;;;;;;2.30;0.95;;;9.70;99.90;;;;;;5012965;28;20034;-77
2024/03/29 01:38:07;;;;;;;4.57;0.75;;;9.70;99.90;;;;;;5012233;28;20411;-77
2024/03/29 01:40:33;;;;;;;2.50;0.60;;;9.70;99.90;;;;;;5012809;28;20439;-76
2024/03/29 01:43:01;;;;;;;2.67;0.90;;;9.70;99.90;;;;;;5012066;28;20496;-77
2024/03/29 01:45:26;;;;;;;3.08;0.80;;;9.70;99.90;;;;;;5012915;28;20080;-77
2024/03/29 01:47:53;;;;;;;1.88;0.50;;;9.70;99.90;;;;;;5010718;28;20499;-76
2024/03/29 01:50:18;;;;;;;2.58;1.02;;;9.70;99.90;;;;;;5012800;28;20049;-77
2024/03/29 01:52:45;;;;;;;3.72;0.82;;;9.70;99.90;;;;;;5011868;28;20042;-77
2024/03/29 01:55:10;;;;;;;3.30;0.80;;;9.70;99.90;;;;;;5012624;28;20022;-77
2024/03/29 01:57:36;;;;;;;2.85;0.73;;;9.70;99.90;;;;;;5010719;28;20033;-76
2024/03/29 02:00:05;;;;;;;3.50;0.80;;;9.70;99.90;;;;;;5012588;28;20479;-77
2024/03/29 02:02:32;;;;;;;3.85;0.93;;;9.70;99.90;;;;;;5011705;28;20098;-76
2024/03/29 02:04:58;;;;;;;2.53;0.50;;;9.70;99.90;;;;;;5011236;28;20049;-77
2024/03/29 02:07:25;;;;;;;5.40;0.80;;;9.60;99.90;;;;;;5011742;28;20514;-76
2024/03/29 02:09:50;;;;;;;4.43;0.70;;;9.60;99.90;;;;;;5011231;28;20108;-77
2024/03/29 02:12:16;;;;;;;6.03;0.90;;;9.60;99.90;;;;;;5011937;28;20022;-77
2024/03/29 02:14:42;;;;;;;2.83;0.65;;;9.60;99.90;;;;;;5012571;28;20037;-77
2024/03/29 02:17:08;;;;;;;2.13;0.55;;;9.60;99.90;;;;;;5009758;28;20029;-77
2024/03/29 02:19:34;;;;;;;5.38;1.25;;;9.50;99.90;;;;;;5012221;28;20042;-77
2024/03/29 02:22:01;;;;;;;5.15;0.82;;;9.50;99.90;;;;;;5010392;28;20037;-77
2024/03/29 02:24:27;;;;;;;1.55;0.43;;;9.60;99.90;;;;;;5012141;28;20018;-77
2024/03/29 02:26:56;;;;;;;3.72;0.70;;;9.60;99.90;;;;;;5011992;28;20030;-77
2024/03/29 02:29:21;;;;;;;3.33;0.70;;;9.60;99.90;;;;;;5012309;28;20022;-76
2024/03/29 02:31:47;;;;;;;2.15;0.70;;;9.60;99.90;;;;;;5012040;28;20396;-77
2024/03/29 02:34:12;;;;;;;3.33;0.75;;;9.60;99.90;;;;;;5012451;28;20033;-77
2024/03/29 02:36:38;;;;;;;4.25;0.80;;;9.60;99.90;;;;;;5011522;28;20429;-76
2024/03/29 02:39:04;;;;;;;5.43;1.13;;;9.70;99.90;;;;;;5012422;28;20432;-77
2024/03/29 02:41:30;;;;;;;2.45;0.65;;;9.70;99.90;;;;;;5011924;28;20026;-77
2024/03/29 02:43:56;;;;;;;2.42;0.52;;;9.70;99.90;;;;;;5012252;28;20479;-78
2024/03/29 02:46:22;;;;;;;3.08;0.68;;;9.80;99.90;;;;;;5011118;28;20026;-78
2024/03/29 02:48:47;;;;;;;4.65;0.93;;;9.80;99.90;;;;;;5010110;28;20029;-78
2024/03/29 02:51:13;;;;;;;4.32;0.80;;;9.80;99.90;;;;;;5012230;28;20405;-76
2024/03/29 02:53:39;;;;;;;4.18;0.85;;;9.90;99.90;;;;;;5010234;28;20395;-78
2024/03/29 02:56:07;;;;;;;4.05;0.98;;;9.90;99.90;;;;;;5012268;28;20387;-78
2024/03/29 02:58:34;;;;;;;4.97;0.90;;;9.90;99.90;;;;;;5010287;28;20018;-78
2024/03/29 03:01:09;;;;;;;2.33;0.68;;;9.90;99.90;;;;;;5010853;28;20029;-78
2024/03/29 03:03:35;;;;;;;3.42;0.90;;;9.90;99.90;;;;;;5011309;28;20152;-77
2024/03/29 03:06:01;;;;;;;4.72;0.93;;;10.00;99.90;;;;;;5012174;28;20030;-78
2024/03/29 03:11:13;;;;;;;5.68;1.10;;;10.00;99.90;;;;;;5012482;28;20084;-78
2024/03/29 03:13:38;;;;;;;3.47;0.95;;;10.00;99.90;;;;;;5011698;28;20046;-78
2024/03/29 03:16:04;;;;;;;2.25;0.63;;;10.00;99.90;;;;;;5011921;28;20033;-78
2024/03/29 03:18:30;;;;;;;6.88;1.00;;;10.00;99.90;;;;;;5011032;28;20046;-77
2024/03/29 03:20:57;;;;;;;6.68;1.27;;;9.90;99.90;;;;;;5012256;28;20026;-77
2024/03/29 03:23:24;;;;;;;2.45;0.90;;;9.90;99.90;;;;;;5011014;28;20022;-78
2024/03/29 03:26:00;;;;;;;2.38;0.80;;;9.90;99.90;;;;;;5011527;28;20491;-78
2024/03/29 03:28:27;;;;;;;3.60;0.95;;;9.90;99.90;;;;;;5012069;28;20490;-78
2024/03/29 03:30:53;;;;;;;6.80;1.13;;;9.90;99.90;;;;;;5015016;28;20111;-78
2024/03/29 03:33:20;;;;;;;2.90;0.70;;;9.90;99.90;;;;;;5013269;28;20022;-78
2024/03/29 03:35:46;;;;;;;2.17;0.60;;;9.90;99.90;;;;;;5015405;28;20029;-78
2024/03/29 03:38:13;;;;;;;4.78;0.95;;;9.80;99.90;;;;;;5014419;28;20096;-78
2024/03/29 03:40:39;;;;;;;3.30;0.80;;;9.80;99.90;;;;;;5013887;28;20072;-78
2024/03/29 03:43:06;;;;;;;2.53;0.75;;;9.90;99.90;;;;;;5012935;28;20383;-78
2024/03/29 03:45:36;;;;;;;2.92;0.70;;;9.90;99.90;;;;;;5015040;28;20018;-77
2024/03/29 03:48:05;;;;;;;1.55;0.60;;;9.90;99.90;;;;;;5014162;28;20022;-77
2024/03/29 03:50:31;;;;;;;5.45;1.40;;;9.90;99.90;;;;;;5014964;28;20461;-77
2024/03/29 03:52:57;;;;;;;2.33;0.52;;;9.90;99.90;;;;;;5014162;28;20014;-78
2024/03/29 03:55:23;;;;;;;2.63;0.80;;;9.90;99.90;;;;;;5014554;28;20472;-77
2024/03/29 03:57:49;;;;;;;8.55;0.77;;;9.80;99.90;;;;;;5014238;28;20380;-77
2024/03/29 04:00:15;;;;;;;3.40;0.60;;;9.70;99.90;;;;;;5014677;28;20052;-77
2024/03/29 04:02:40;;;;;;;2.28;0.63;;;9.60;99.90;;;;;;5013815;28;20022;-78
2024/03/29 04:05:07;;;;;;;3.45;0.80;;;9.60;99.90;;;;;;5014475;28;20018;-80
2024/03/29 04:07:33;;;;;;;3.50;0.98;;;9.50;99.90;;;;;;5013882;28;20030;-78
2024/03/29 04:09:58;;;;;;;1.80;0.57;;;9.40;99.90;;;;;;5013299;28;20084;-78
2024/03/29 04:12:24;;;;;;;2.05;0.50;;;9.40;99.90;;;;;;5013700;28;20026;-77
2024/03/29 04:14:49;;;;;;;3.45;0.52;;;9.30;99.90;;;;;;5014798;28;20021;-78
2024/03/29 04:17:15;;;;;;;4.38;0.68;;;9.20;99.90;;;;;;5013615;28;20057;-78
2024/03/29 04:19:41;;;;;;;2.78;0.40;;;9.20;99.90;;;;;;5012899;28;20503;-77
2024/03/29 04:22:06;;;;;;;3.40;0.70;;;9.10;99.90;;;;;;5013534;28;20026;-77
2024/03/29 04:24:32;;;;;;;2.15;0.43;;;9.10;99.90;;;;;;5012923;28;20117;-77
2024/03/29 04:26:58;;;;;;;1.88;0.50;;;9.10;99.90;;;;;;5013702;28;20029;-77
2024/03/29 04:29:23;;;;;;;3.80;0.73;;;9.00;99.90;;;;;;5014365;28;20045;-77
2024/03/29 04:31:49;;;;;;;3.20;0.80;;;9.00;99.90;;;;;;5013823;28;20181;-77
2024/03/29 04:34:15;;;;;;;2.58;0.47;;;9.00;99.90;;;;;;5014491;28;20044;-77
2024/03/29 04:36:40;;;;;;;2.08;0.52;;;9.00;99.90;;;;;;5013927;28;20053;-77
2024/03/29 04:39:06;;;;;;;3.45;0.80;;;8.90;99.90;;;;;;5013673;28;20065;-77
2024/03/29 04:41:34;;;;;;;3.15;0.80;;;8.90;99.90;;;;;;5013150;28;20083;-77
2024/03/29 04:44:04;;;;;;;3.72;0.73;;;8.90;99.90;;;;;;5013315;28;20022;-77
2024/03/29 04:46:30;;;;;;;1.17;0.40;;;8.90;99.90;;;;;;5013735;28;20391;-77
2024/03/29 04:48:57;;;;;;;4.15;0.65;;;8.80;99.90;;;;;;5013263;28;20018;-77
2024/03/29 04:51:22;;;;;;;3.00;0.65;;;8.80;99.90;;;;;;5013665;28;20030;-77
2024/03/29 04:53:48;;;;;;;2.55;0.70;;;8.80;99.90;;;;;;5013173;28;20022;-77
2024/03/29 04:56:14;;;;;;;1.52;0.50;;;8.80;99.90;;;;;;5013434;28;20037;-77
2024/03/29 04:58:39;;;;;;;2.65;0.73;;;8.70;99.90;;;;;;5012958;28;20022;-77
2024/03/29 05:01:05;;;;;;;2.88;0.85;;;8.70;99.90;;;;;;5013272;28;20037;-77
2024/03/29 05:03:31;;;;;;;4.65;0.60;;;8.70;99.90;;;;;;5013088;28;20025;-78
2024/03/29 05:05:57;;;;;;;3.13;0.70;;;8.70;99.90;;;;;;5013575;28;20087;-77
2024/03/29 05:08:22;;;;;;;2.15;0.45;;;8.70;99.90;;;;;;5011593;28;20030;-77
2024/03/29 05:10:52;;;;;;;2.45;0.60;;;8.60;99.90;;;;;;5012021;28;20435;-77
2024/03/29 05:13:21;;;;;;;2.97;0.60;;;8.70;99.90;;;;;;5012906;28;20030;-78
2024/03/29 05:15:50;;;;;;;2.60;0.65;;;8.70;99.90;;;;;;5012085;28;20390;-78
2024/03/29 05:18:16;;;;;;;3.22;0.80;;;8.60;99.90;;;;;;5012679;28;20049;-78
2024/03/29 05:20:46;;;;;;;2.60;0.70;;;8.60;99.90;;;;;;5013548;28;20547;-78
2024/03/29 05:23:14;;;;;;;2.67;1.10;;;8.60;99.90;;;;;;5012676;28;20020;-78
2024/03/29 05:25:40;;;;;;;2.45;1.02;;;8.60;99.90;;;;;;5013238;28;20044;-78
2024/03/29 05:28:07;;;;;;;4.20;0.88;;;8.60;99.90;;;;;;5012460;28;20507;-79
2024/03/29 05:30:33;;;;;;;2.92;0.80;;;8.60;99.90;;;;;;5013275;28;20078;-78
2024/03/29 05:32:58;;;;;;;4.47;1.10;;;8.60;99.90;;;;;;5012583;28;20106;-78
2024/03/29 05:35:24;;;;;;;4.68;1.25;;;8.60;99.90;;;;;;5012870;28;20022;-78
2024/03/29 05:37:53;;;;;;;4.45;1.10;;;8.50;99.90;;;;;;5012448;28;20026;-78
2024/03/29 05:40:18;;;;;;;3.30;0.98;;;8.50;99.90;;;;;;5013008;28;20018;-78
2024/03/29 05:42:44;;;;;;;2.08;0.63;;;8.40;99.90;;;;;;5012191;28;20083;-78
2024/03/29 05:45:26;;;;;;;3.28;0.60;;;8.40;99.90;;;;;;5012749;28;20025;-78
2024/03/29 05:47:56;;;;;;;1.40;0.40;;;8.40;99.90;;;;;;5012174;28;20026;-78
2024/03/29 05:50:23;;;;;;;2.80;0.70;;;8.40;99.90;;;;;;5012758;28;20487;-78
2024/03/29 05:52:48;;;;;;;2.92;0.57;;;8.30;99.90;;;;;;5012100;28;20022;-78
2024/03/29 05:55:14;;;;;;;4.07;1.02;;;8.40;99.90;;;;;;5012363;28;20028;-78
2024/03/29 05:57:44;;;;;;;2.28;0.75;;;8.30;99.90;;;;;;5011950;28;20172;-78
2024/03/29 06:00:13;;;;;;;2.30;0.70;;;8.30;99.90;;;;;;5011572;28;20025;-78
2024/03/29 06:02:39;;;;;;;1.85;0.73;;;8.30;99.90;;;;;;5012115;28;20026;-78
2024/03/29 06:05:05;;;;;;;3.33;0.82;;;8.30;99.90;;;;;;5012593;28;20029;-78
2024/03/29 06:07:33;;;;;;;2.67;0.70;;;8.30;99.90;;;;;;5012038;28;20030;-78
2024/03/29 06:10:01;;;;;;;3.42;0.90;;;8.30;99.90;;;;;;5011365;28;20034;-78
2024/03/29 06:12:27;;;;;;;3.05;0.65;;;8.30;99.90;;;;;;5012115;28;20415;-78
2024/03/29 06:17:37;;;;;;;4.00;1.02;;;8.30;99.90;;;;;;5011704;28;20040;-77
2024/03/29 06:20:04;;;;;;;6.95;1.10;;;8.30;99.90;;;;;;5012837;28;20022;-78
2024/03/29 06:22:32;;;;;;;4.13;0.88;;;8.30;99.90;;;;;;5010534;28;20399;-77
2024/03/29 06:25:04;;;;;;;1.35;0.40;;;8.30;99.90;;;;;;5012291;28;20124;-77
2024/03/29 06:27:34;;;;;;;5.38;1.20;;;8.30;99.90;;;;;;5011841;28;20060;-78
2024/03/29 06:30:00;;;;;;;1.50;0.40;;;8.30;99.90;;;;;;5012396;28;20434;-77
2024/03/29 06:32:26;;;;;;;3.08;0.65;;;8.40;99.90;;;;;;5011724;28;20502;-78
2024/03/29 06:34:52;;;;;;;2.95;0.80;;;8.40;99.90;;;;;;5012362;28;20034;-78
2024/03/29 06:37:19;;;;;;;3.53;1.02;;;8.40;99.90;;;;;;5011415;28;20241;-77
2024/03/29 06:39:44;;;;;;;3.55;0.80;;;8.40;99.90;;;;;;5012231;28;20029;-77
2024/03/29 06:42:10;;;;;;;1.35;0.60;;;8.50;99.90;;;;;;5012005;28;20404;-77
2024/03/29 06:44:39;;;;;;;3.80;0.85;;;8.50;99.90;;;;;;5011703;28;20018;-77
2024/03/29 06:47:04;;;;;;;2.83;0.90;;;8.50;99.90;;;;;;5012237;28;20030;-78
2024/03/29 06:49:32;;;;;;;1.52;0.68;;;8.60;99.90;;;;;;5011408;28;20407;-77
2024/03/29 06:52:00;;;;;;;3.47;0.70;;;8.60;99.90;;;;;;5012041;28;20026;-77
2024/03/29 06:54:26;;;;;;;2.67;0.80;;;8.60;99.90;;;;;;5009901;28;20499;-77
2024/03/29 06:56:56;;;;;;;3.08;0.80;;;8.60;99.90;;;;;;5011967;28;20040;-77
2024/03/29 06:59:21;;;;;;;3.83;0.90;;;8.60;99.90;;;;;;5011241;28;20387;-78
2024/03/29 07:01:51;;;;;;;3.53;0.90;;;8.60;99.90;;;;;;5012201;28;20022;-77
2024/03/29 07:04:20;;;;;;;4.15;0.70;;;8.60;99.90;;;;;;5013999;28;20033;-78
2024/03/29 07:06:51;;;;;;;2.72;0.88;;;8.60;99.90;;;;;;5016654;28;20025;-78
2024/03/29 07:09:18;;;;;;;3.50;0.80;;;8.60;99.90;;;;;;5014072;28;20626;-78
2024/03/29 07:11:49;;;;;;;3.30;0.93;;;8.60;99.90;;;;;;5015834;28;20033;-78
2024/03/29 07:14:15;;;;;;;3.83;1.00;;;8.60;99.90;;;;;;5015246;28;20022;-77
2024/03/29 07:16:41;;;;;;;2.60;0.82;;;8.60;99.90;;;;;;5015615;28;20144;-78
2024/03/29 07:19:06;;;;;;;3.40;0.90;;;8.70;99.90;;;;;;5014543;28;20125;-77
2024/03/29 07:21:32;;;;;;;5.60;1.00;;;8.70;99.90;;;;;;5015677;28;20027;-78
2024/03/29 07:23:58;;;;;;;4.15;0.93;;;8.70;99.90;;;;;;5014650;28;20444;-77
2024/03/29 07:26:23;;;;;;;3.10;1.00;;;8.70;99.90;;;;;;5015331;28;20144;-77
2024/03/29 07:28:49;;;;;;;2.28;1.02;;;8.70;99.90;;;;;;5014850;28;20399;-77
2024/03/29 07:31:15;;;;;;;4.00;1.08;;;8.70;99.90;;;;;;5015321;28;20443;-77
2024/03/29 07:33:40;;;;;;;3.20;0.90;;;8.60;99.90;;;;;;5014472;28;20037;-77
2024/03/29 07:36:07;;;;;;;2.08;0.90;;;8.70;99.90;;;;;;5014072;28;20513;-76
2024/03/29 07:38:33;;;;;;;3.40;0.95;;;8.70;99.90;;;;;;5014522;28;20479;-77
2024/03/29 07:40:59;;;;;;;4.65;1.00;;;8.70;99.90;;;;;;5014843;28;20026;-77
2024/03/29 07:43:25;;;;;;;2.78;1.05;;;8.80;99.90;;;;;;5014330;28;20137;-78
2024/03/29 07:45:51;;;;;;;3.80;0.90;;;8.80;99.90;;;;;;5013792;28;20041;-77
2024/03/29 07:48:17;;;;;;;3.08;0.90;;;8.70;99.90;;;;;;5013965;28;20431;-77
2024/03/29 07:50:44;;;;;;;3.13;1.20;;;8.70;99.90;;;;;;5014950;28;20025;-77
2024/03/29 07:53:10;;;;;;;2.80;1.25;;;8.70;99.90;;;;;;5014360;28;20044;-77
2024/03/29 07:55:38;;;;;;;4.25;1.23;;;8.70;99.90;;;;;;5014737;28;20100;-78
2024/03/29 07:58:05;;;;;;;2.72;1.05;;;8.70;99.90;;;;;;5014135;28;20026;-78
2024/03/29 08:00:34;;;;;;;3.83;1.17;;;8.70;99.90;;;;;;5014762;28;20363;-78
2024/03/29 08:03:00;;;;;;;4.22;1.20;;;8.70;99.90;;;;;;5012914;28;20014;-78
2024/03/29 08:05:27;;;;;;;5.57;1.40;;;8.70;99.90;;;;;;5014777;28;20028;-78
2024/03/29 08:07:53;;;;;;;3.10;1.20;;;8.70;99.90;;;;;;5014281;28;20022;-78
2024/03/29 08:10:18;;;;;;;3.03;1.20;;;8.80;99.90;;;;;;5014633;28;20549;-78
2024/03/29 08:12:44;;;;;;;3.83;1.10;;;8.80;99.90;;;;;;5013800;28;20022;-77
2024/03/29 08:15:10;;;;;;;2.38;0.90;;;8.80;99.90;;;;;;5013547;28;20026;-77
2024/03/29 08:17:36;;;;;;;4.90;1.10;;;8.80;99.90;;;;;;5013666;28;20387;-75
2024/03/29 08:20:02;;;;;;;1.52;0.90;;;8.80;99.90;;;;;;5014281;28;20053;-77
2024/03/29 08:22:28;;;;;;;2.20;0.90;;;8.80;99.90;;;;;;5014462;28;20029;-77
2024/03/29 08:24:55;;;;;;;2.50;1.13;;;8.80;99.90;;;;;;5013848;28;20022;-77
2024/03/29 08:27:20;;;;;;;2.47;0.98;;;8.80;99.90;;;;;;5014453;28;20026;-77
2024/03/29 08:29:46;;;;;;;5.53;1.15;;;8.90;99.90;;;;;;5013909;28;20468;-77
2024/03/29 08:32:12;;;;;;;5.18;1.30;;;8.90;99.90;;;;;;5014330;28;20037;-77
2024/03/29 08:34:38;;;;;;;2.95;1.20;;;8.90;99.90;;;;;;5013832;28;20529;-76
2024/03/29 08:37:04;;;;;;;2.95;1.00;;;8.90;99.90;;;;;;5014140;28;20065;-76
2024/03/29 08:39:32;;;;;;;3.60;1.08;;;9.00;99.90;;;;;;5013559;28;20390;-76
2024/03/29 08:41:59;;;;;;;3.50;1.00;;;9.10;99.90;;;;;;5013921;28;20084;-76
2024/03/29 08:44:25;;;;;;;3.45;1.20;;;9.10;99.90;;;;;;5013303;28;20064;-76
2024/03/29 08:46:52;;;;;;;5.80;1.40;;;9.10;99.90;;;;;;5012355;28;20033;-77
2024/03/29 08:49:17;;;;;;;3.20;1.38;;;9.20;99.90;;;;;;5013389;28;20026;-77
2024/03/29 08:51:43;;;;;;;2.45;1.20;;;9.30;99.90;;;;;;5012475;28;20475;-77
2024/03/29 08:54:09;;;;;;;2.20;1.00;;;9.40;99.90;;;;;;5011676;28;20030;-77
2024/03/29 08:56:36;;;;;;;3.08;1.20;;;9.40;99.90;;;;;;5012411;28;20100;-76
2024/03/29 08:59:07;;;;;;;2.67;1.17;;;9.60;99.90;;;;;;5012905;28;20021;-76
2024/03/29 09:01:33;;;;;;;3.25;1.15;;;9.60;99.90;;;;;;5013848;28;20049;-76
2024/03/29 09:03:59;;;;;;;1.77;0.93;;;9.60;99.90;;;;;;5013005;28;20045;-77
2024/03/29 09:06:24;;;;;;;5.50;1.45;;;9.80;99.90;;;;;;5013724;28;20029;-76
2024/03/29 09:08:50;;;;;;;4.43;1.20;;;9.80;99.90;;;;;;5012846;28;20022;-76
2024/03/29 09:11:16;;;;;;;3.03;1.05;;;9.80;99.90;;;;;;5013458;28;20059;-76
2024/03/29 09:13:41;;;;;;;2.72;1.20;;;9.90;99.90;;;;;;5011524;28;20080;-76
2024/03/29 09:16:08;;;;;;;2.78;1.00;;;9.90;99.90;;;;;;5011959;28;20484;-76
2024/03/29 09:18:33;;;;;;;4.25;1.10;;;10.00;99.90;;;;;;5012626;28;20053;-76
2024/03/29 09:21:00;;;;;;;3.35;0.98;;;10.00;99.90;;;;;;5013540;28;20018;-76
2024/03/29 09:23:28;;;;;;;2.45;0.77;;;10.00;99.90;;;;;;5012558;28;20037;-76
2024/03/29 09:25:54;;;;;;;2.45;1.00;;;10.00;99.90;;;;;;5013044;28;20022;-76
2024/03/29 09:28:21;;;;;;;1.52;0.90;;;10.00;99.90;;;;;;5012371;28;20391;-76
2024/03/29 09:30:48;;;;;;;1.55;0.95;;;10.00;99.90;;;;;;5013137;28;20483;-76
2024/03/29 09:33:13;;;;;;;2.80;1.00;;;10.00;99.90;;;;;;5012689;28;20037;-77
2024/03/29 09:35:39;;;;;;;2.78;1.20;;;10.00;99.90;;;;;;5012990;28;20384;-77
2024/03/29 09:38:05;;;;;;;1.55;1.05;;;10.10;99.90;;;;;;5012500;28;20030;-77
2024/03/29 09:40:32;;;;;;;3.53;1.10;;;10.20;99.90;;;;;;5013199;28;20026;-76
2024/03/29 09:43:04;;;;;;;3.08;1.40;;;10.20;99.90;;;;;;5012277;28;20361;-77
2024/03/29 09:45:37;;;;;;;4.30;1.30;;;10.40;99.90;;;;;;5011458;28;20084;-77
2024/03/29 09:48:04;;;;;;;5.05;1.90;;;10.50;99.90;;;;;;5012539;28;20026;-77
2024/03/29 09:50:31;;;;;;;2.58;1.17;;;10.60;99.90;;;;;;5012785;28;20022;-77
2024/03/29 09:52:58;;;;;;;3.90;1.40;;;10.80;99.90;;;;;;5012324;28;20109;-78
2024/03/29 09:55:24;;;;;;;3.17;1.35;;;10.90;99.90;;;;;;5011542;28;20018;-77
2024/03/29 09:57:50;;;;;;;2.63;1.05;;;11.10;99.90;;;;;;5012569;28;20022;-77
2024/03/29 10:00:17;;;;;;;3.83;1.42;;;11.20;99.90;;;;;;5012350;28;20025;-76
2024/03/29 10:02:44;;;;;;;3.28;1.30;;;11.20;99.90;;;;;;5011075;28;20026;-78
2024/03/29 10:05:12;;;;;;;2.90;1.17;;;11.30;99.90;;;;;;5011981;28;20053;-78
2024/03/29 10:07:39;;;;;;;3.60;1.45;;;11.30;99.90;;;;;;5012162;28;20517;-77
2024/03/29 10:10:05;;;;;;;5.18;1.70;;;11.30;99.90;;;;;;5011846;28;20399;-77
2024/03/29 10:12:30;;;;;;;5.47;1.40;;;11.20;99.90;;;;;;5012546;28;20045;-77
2024/03/29 10:15:05;;;;;;;3.13;1.50;;;11.30;99.90;;;;;;5012098;28;20398;-77
2024/03/29 10:17:31;;;;;;;3.03;1.20;;;11.30;99.90;;;;;;5012656;28;20037;-77
2024/03/29 10:20:03;;;;;;;3.25;1.30;;;11.40;99.90;;;;;;5011798;28;20077;-77
2024/03/29 10:22:29;;;;;;;2.50;1.20;;;11.40;99.90;;;;;;5012498;28;20033;-77
2024/03/29 10:24:58;;;;;;;5.05;1.20;;;11.50;99.90;;;;;;5010621;28;20028;-78
2024/03/29 10:27:27;;;;;;;3.35;1.42;;;11.60;99.90;;;;;;5012305;28;20021;-77
2024/03/29 10:29:56;;;;;;;3.28;1.30;;;11.60;99.90;;;;;;5011560;28;20037;-77
2024/03/29 10:32:22;;;;;;;2.55;1.23;;;11.70;99.90;;;;;;5012302;28;20529;-78
2024/03/29 10:34:49;;;;;;;3.58;1.42;;;11.80;99.90;;;;;;5010536;28;20025;-77
2024/03/29 10:37:16;;;;;;;3.00;1.40;;;11.90;99.90;;;;;;5010787;28;20029;-77
2024/03/29 10:39:44;;;;;;;2.75;1.33;;;12.00;99.90;;;;;;5014363;28;20411;-78
2024/03/29 10:42:11;;;;;;;4.80;1.45;;;12.10;99.90;;;;;;5016662;28;20026;-78
2024/03/29 10:44:39;;;;;;;2.92;1.20;;;12.10;99.90;;;;;;5015688;28;20056;-78
2024/03/29 10:47:07;;;;;;;4.70;1.30;;;12.10;99.90;;;;;;5016319;28;20091;-77
2024/03/29 10:49:34;;;;;;;2.20;1.10;;;12.30;99.90;;;;;;5015757;28;20088;-78
2024/03/29 10:52:02;;;;;;;3.53;1.48;;;12.40;99.90;;;;;;5016333;28;20026;-78
2024/03/29 10:54:28;;;;;;;3.80;1.42;;;12.50;99.90;;;;;;5015552;28;20033;-78
2024/03/29 10:57:09;;;;;;;3.78;1.52;;;12.60;99.90;;;;;;5016399;28;20101;-78
2024/03/29 10:59:48;;;;;;;2.65;1.20;;;12.80;99.90;;;;;;5015356;28;20022;-78
2024/03/29 11:02:32;;;;;;;3.42;1.27;;;12.90;99.90;;;;;;5016707;28;20022;-77
2024/03/29 11:05:05;;;;;;;2.97;1.33;;;13.00;99.90;;;;;;5015325;28;20399;-77
2024/03/29 11:07:34;;;;;;;3.15;1.50;;;13.00;99.90;;;;;;5015994;28;20145;-77
2024/03/29 11:10:02;;;;;;;5.20;1.50;;;13.10;99.90;;;;;;5015109;28;20026;-77
2024/03/29 11:12:30;;;;;;;2.08;1.35;;;13.20;99.90;;;;;;5016023;28;20105;-77
2024/03/29 11:15:22;;;;;;;2.83;1.17;;;13.20;99.90;;;;;;5015086;28;20484;-76
2024/03/29 11:17:48;;;;;;;1.90;1.00;;;13.20;99.90;;;;;;5015699;28;20033;-77
2024/03/29 11:20:18;;;;;;;2.90;1.33;;;13.40;99.90;;;;;;5015057;28;20037;-77
2024/03/29 11:22:44;;;;;;;3.33;1.20;;;13.60;99.90;;;;;;5015700;28;20022;-77
2024/03/29 11:25:13;;;;;;;3.35;1.23;;;13.70;99.90;;;;;;5014953;28;20014;-77
2024/03/29 11:27:38;;;;;;;2.67;1.27;;;13.70;99.90;;;;;;5015768;28;20057;-77
2024/03/29 11:30:06;;;;;;;7.15;1.45;;;13.70;99.90;;;;;;5014928;28;20045;-77
2024/03/29 11:32:37;;;;;;;1.90;1.35;;;13.70;99.90;;;;;;5015941;28;20037;-77
2024/03/29 11:35:04;;;;;;;2.67;1.20;;;13.70;99.90;;;;;;5014729;28;20022;-77
2024/03/29 11:37:32;;;;;;;5.00;1.27;;;13.60;99.90;;;;;;5015293;28;20104;-77
2024/03/29 11:40:03;;;;;;;2.63;1.50;;;13.70;99.90;;;;;;5015041;28;20026;-77
2024/03/29 11:42:38;;;;;;;4.28;1.05;;;13.70;99.90;;;;;;5015139;28;20029;-77
2024/03/29 11:45:07;;;;;;;3.03;1.25;;;13.90;99.90;;;;;;5014603;28;20029;-77
2024/03/29 11:47:33;;;;;;;2.40;1.00;;;14.00;99.90;;;;;;5015062;28;20052;-77
2024/03/29 11:49:59;;;;;;;1.90;0.88;;;14.10;99.90;;;;;;5014420;28;20483;-77
2024/03/29 11:52:26;;;;;;;3.03;1.27;;;14.20;99.90;;;;;;5015051;28;20025;-78
2024/03/29 11:54:54;;;;;;;4.47;1.10;;;14.10;99.90;;;;;;5014318;28;20037;-77
2024/03/29 11:57:19;;;;;;;0.93;0.80;;;14.00;99.90;;;;;;5015053;28;20052;-78
2024/03/29 11:59:45;;;;;;;1.98;0.98;;;14.10;99.90;;;;;;5014354;28;20109;-78
2024/03/29 12:02:14;;;;;;;0.77;0.60;;;14.10;99.90;;;;;;5014045;28;20033;-78
2024/03/29 12:04:41;;;;;;;1.30;0.70;;;14.20;99.90;;;;;;5014620;28;20029;-78
2024/03/29 12:07:07;;;;;;;1.25;0.55;;;14.10;99.90;;;;;;5015144;28;20029;-78
2024/03/29 12:09:32;;;;;;;2.10;0.60;;;14.10;99.90;;;;;;5014209;28;20506;-77
2024/03/29 12:12:03;;;;;;;4.43;0.88;;;14.10;99.90;;;;;;5013503;28;20049;-77
2024/03/29 12:14:34;;;;;;;;;;;14.20;99.90;;;;;;5013324;28;20021;-76
2024/03/29 12:17:00;;;;;;;;;;;14.20;99.90;;;;;;5015447;28;20366;-76
2024/03/29 12:19:27;;;;;;;0.43;0.40;;;14.20;99.90;;;;;;5013816;28;19917;-79
2024/03/29 12:21:53;;;;;;;1.70;0.70;;;14.30;99.90;;;;;;5014813;28;20022;-78
2024/03/29 12:24:20;;;;;;;1.25;0.80;;;14.40;99.90;;;;;;5012783;28;20396;-78
2024/03/29 12:26:49;;;;;;;0.80;0.60;;;14.40;99.90;;;;;;5014609;28;20036;-77
2024/03/29 12:29:15;;;;;;;2.05;0.80;;;14.50;99.90;;;;;;5012644;28;20076;-77
2024/03/29 12:31:41;;;;;;;1.77;0.73;;;14.50;99.90;;;;;;5012888;28;20061;-78
2024/03/29 12:34:07;;;;;;;0.75;0.52;;;14.60;99.90;;;;;;5013720;28;20046;-78
2024/03/29 12:36:33;;;;;;;2.20;0.90;;;14.80;99.90;;;;;;5013006;28;20022;-77
2024/03/29 12:39:02;;;;;;;1.65;0.68;;;15.00;99.90;;;;;;5013739;28;20032;-78
2024/03/29 12:41:29;;;;;;;1.40;0.70;;;15.30;99.90;;;;;;5012721;28;20475;-77
2024/03/29 12:43:55;;;;;;;1.20;0.63;;;15.40;99.90;;;;;;5013620;28;20387;-78
2024/03/29 12:46:21;;;;;;;2.03;0.60;;;15.40;99.90;;;;;;5013952;28;20033;-77
2024/03/29 12:48:46;;;;;;;1.52;0.90;;;15.30;99.90;;;;;;5013428;28;20030;-77
2024/03/29 12:51:12;;;;;;;1.42;0.70;;;15.20;99.90;;;;;;5014181;28;20037;-77
2024/03/29 12:53:39;;;;;;;1.65;0.68;;;15.10;99.90;;;;;;5013343;28;20407;-77
2024/03/29 12:56:05;;;;;;;2.05;0.55;;;15.20;99.90;;;;;;5013752;28;20021;-77
2024/03/29 12:58:30;;;;;;;0.85;0.60;;;15.30;99.90;;;;;;5012003;28;20152;-78